Time;durP1;ratioP1;P1;durP2;ratioP2;P2;SDS_P1;SDS_P2;PMS_P1;PMS_P2;Temp;Humidity;BMP_temperature;BMP_pressure;BME280_temperature;BME280_humidity;BME280_pressure;Samples;Min_cycle;Max_cycle;Signal;HPM_P1;HPM_P2
2021/12/03 00:00:59;;;;;;;5.30;1.60;;;0.90;99.90;;;;;;5080374;28;20040;-53
2021/12/03 00:03:26;;;;;;;7.47;1.60;;;0.90;99.90;;;;;;5080402;28;20040;-53
2021/12/03 00:05:55;;;;;;;5.30;1.23;;;0.90;99.90;;;;;;5080802;28;20099;-52
2021/12/03 00:08:21;;;;;;;5.10;1.45;;;0.90;99.90;;;;;;5080290;28;20048;-54
2021/12/03 00:10:53;;;;;;;6.95;1.58;;;0.90;99.90;;;;;;5080562;28;20083;-53
2021/12/03 00:13:20;;;;;;;12.73;1.75;;;1.00;99.90;;;;;;5077626;28;20070;-53
2021/12/03 00:15:46;;;;;;;5.82;1.38;;;1.00;99.90;;;;;;5080189;28;20098;-55
2021/12/03 00:18:12;;;;;;;7.55;1.80;;;1.00;99.90;;;;;;5080176;28;20048;-55
2021/12/03 00:20:39;;;;;;;7.30;1.67;;;1.10;99.90;;;;;;5080341;28;20097;-53
2021/12/03 00:23:06;;;;;;;8.40;1.70;;;1.10;99.90;;;;;;5080370;28;20496;-58
2021/12/03 00:25:33;;;;;;;8.25;1.55;;;1.20;99.90;;;;;;5079969;28;20064;-53
2021/12/03 00:27:58;;;;;;;6.82;2.28;;;1.20;99.90;;;;;;5080539;28;20054;-56
2021/12/03 00:30:24;;;;;;;4.13;1.42;;;1.30;99.90;;;;;;5079368;28;20128;-55
2021/12/03 00:32:50;;;;;;;6.57;1.60;;;1.30;99.90;;;;;;5080539;28;20049;-55
2021/12/03 00:35:17;;;;;;;4.85;1.25;;;1.20;99.90;;;;;;5079744;28;20032;-53
2021/12/03 00:37:44;;;;;;;7.43;2.17;;;1.40;99.90;;;;;;5080143;28;20041;-52
2021/12/03 00:40:12;;;;;;;10.57;1.77;;;1.30;99.90;;;;;;5080014;28;20420;-53
2021/12/03 00:42:39;;;;;;;7.55;1.55;;;1.40;99.90;;;;;;5079704;28;20090;-53
2021/12/03 00:45:06;;;;;;;6.63;1.70;;;1.40;99.90;;;;;;5080030;28;20063;-54
2021/12/03 00:47:32;;;;;;;4.43;1.40;;;1.40;99.90;;;;;;5079553;28;20041;-53
2021/12/03 00:49:57;;;;;;;6.22;1.63;;;1.40;99.90;;;;;;5080027;28;20040;-53
2021/12/03 00:52:23;;;;;;;6.65;1.55;;;1.40;99.90;;;;;;5093717;28;20036;-54
2021/12/03 00:54:49;;;;;;;7.20;1.60;;;1.40;99.90;;;;;;5100142;28;20047;-54
2021/12/03 00:57:16;;;;;;;8.85;1.70;;;1.40;99.90;;;;;;5100413;28;20048;-54
2021/12/03 00:59:41;;;;;;;6.93;1.88;;;1.40;99.90;;;;;;5099567;28;20044;-55
2021/12/03 01:02:07;;;;;;;8.38;1.45;;;1.40;99.90;;;;;;5100417;28;20049;-54
2021/12/03 01:04:33;;;;;;;6.63;1.73;;;1.40;99.90;;;;;;5099579;28;20048;-54
2021/12/03 01:06:59;;;;;;;6.38;2.38;;;1.40;99.90;;;;;;5100091;28;20039;-55
2021/12/03 01:09:25;;;;;;;5.75;1.80;;;1.40;99.90;;;;;;5099719;28;20044;-53
2021/12/03 01:11:51;;;;;;;7.88;2.20;;;1.30;99.90;;;;;;5099934;28;20062;-54
2021/12/03 01:14:18;;;;;;;6.63;1.50;;;1.30;99.90;;;;;;5099827;28;20079;-54
2021/12/03 01:16:44;;;;;;;7.45;1.77;;;1.30;99.90;;;;;;5099674;28;20545;-53
2021/12/03 01:19:10;;;;;;;7.25;2.72;;;1.20;99.90;;;;;;5100140;28;20442;-55
2021/12/03 01:21:37;;;;;;;5.78;1.92;;;1.20;99.90;;;;;;5099366;28;20044;-54
2021/12/03 01:24:04;;;;;;;6.97;1.70;;;1.20;99.90;;;;;;5100123;28;20052;-53
2021/12/03 01:26:30;;;;;;;8.05;1.95;;;1.20;99.90;;;;;;5101674;28;20048;-54
2021/12/03 01:28:56;;;;;;;7.03;1.73;;;1.20;99.90;;;;;;5101917;28;20659;-55
2021/12/03 01:31:22;;;;;;;6.13;1.67;;;1.10;99.90;;;;;;5102073;28;20071;-54
2021/12/03 01:33:48;;;;;;;5.95;1.90;;;1.10;99.90;;;;;;5101894;28;20059;-53
2021/12/03 01:36:14;;;;;;;6.65;1.67;;;1.10;99.90;;;;;;5103425;28;20096;-54
2021/12/03 01:38:40;;;;;;;7.13;1.75;;;1.10;99.90;;;;;;5102847;28;20036;-53
2021/12/03 01:41:06;;;;;;;7.68;2.08;;;1.10;99.90;;;;;;5103481;28;20516;-54
2021/12/03 01:43:32;;;;;;;6.68;2.00;;;1.00;99.90;;;;;;5102597;28;20052;-55
2021/12/03 01:46:02;;;;;;;5.68;1.60;;;1.20;99.90;;;;;;5103262;28;20075;-54
2021/12/03 01:48:28;;;;;;;5.85;1.90;;;1.10;99.90;;;;;;5103405;28;20051;-53
2021/12/03 01:50:55;;;;;;;8.30;1.70;;;1.10;99.90;;;;;;5101012;28;20553;-54
2021/12/03 01:53:24;;;;;;;7.55;1.50;;;1.10;99.90;;;;;;5083146;28;20068;-55
2021/12/03 01:55:51;;;;;;;5.75;1.55;;;1.20;99.90;;;;;;5082133;28;20029;-55
2021/12/03 01:58:17;;;;;;;7.85;2.28;;;1.20;99.90;;;;;;5082862;28;20044;-54
2021/12/03 02:00:56;;;;;;;5.63;1.58;;;1.20;99.90;;;;;;5082261;28;20052;-54
2021/12/03 02:03:24;;;;;;;7.13;2.20;;;1.30;99.90;;;;;;5082640;28;20067;-52
2021/12/03 02:05:50;;;;;;;3.60;1.42;;;1.30;99.90;;;;;;5082878;28;20028;-55
2021/12/03 02:08:16;;;;;;;6.75;1.63;;;1.20;99.90;;;;;;5081979;28;20403;-53
2021/12/03 02:10:43;;;;;;;7.13;1.42;;;1.30;99.90;;;;;;5082456;28;20045;-55
2021/12/03 02:13:11;;;;;;;4.20;1.38;;;1.30;99.90;;;;;;5081674;28;20049;-53
2021/12/03 02:15:37;;;;;;;8.57;1.67;;;1.30;99.90;;;;;;5082557;28;20045;-54
2021/12/03 02:18:05;;;;;;;4.93;1.40;;;1.30;99.90;;;;;;5082058;28;20040;-53
2021/12/03 02:20:31;;;;;;;5.57;1.30;;;1.30;99.90;;;;;;5082282;28;20037;-53
2021/12/03 02:22:57;;;;;;;4.47;1.60;;;1.40;99.90;;;;;;5082141;28;20044;-54
2021/12/03 02:25:25;;;;;;;5.68;1.50;;;1.50;99.90;;;;;;5081710;28;20037;-53
2021/12/03 02:27:56;;;;;;;6.03;1.70;;;1.40;99.90;;;;;;5082398;28;20051;-55
2021/12/03 02:30:24;;;;;;;5.18;1.30;;;1.40;99.90;;;;;;5081303;28;20066;-55
2021/12/03 02:32:51;;;;;;;4.78;1.52;;;1.40;99.90;;;;;;5082032;28;20045;-55
2021/12/03 02:35:19;;;;;;;5.88;1.60;;;1.40;99.90;;;;;;5081667;28;20033;-56
2021/12/03 02:37:45;;;;;;;5.63;1.38;;;1.40;99.90;;;;;;5081160;28;20049;-55
2021/12/03 02:40:12;;;;;;;6.03;1.40;;;1.40;99.90;;;;;;5081884;28;20057;-55
2021/12/03 02:42:38;;;;;;;4.70;1.50;;;1.40;99.90;;;;;;5081271;28;20124;-55
2021/12/03 02:45:05;;;;;;;5.45;1.50;;;1.40;99.90;;;;;;5081942;28;20048;-55
2021/12/03 02:47:31;;;;;;;7.28;1.60;;;1.50;99.90;;;;;;5081222;28;20045;-52
2021/12/03 02:49:56;;;;;;;5.22;1.27;;;1.30;99.90;;;;;;5081495;28;20132;-54
2021/12/03 02:52:22;;;;;;;6.00;2.22;;;1.40;99.90;;;;;;5095125;28;20078;-54
2021/12/03 02:54:48;;;;;;;6.13;1.40;;;1.40;99.90;;;;;;5101854;28;20384;-55
2021/12/03 02:57:15;;;;;;;5.80;1.30;;;1.30;99.90;;;;;;5102066;28;20044;-55
2021/12/03 02:59:41;;;;;;;6.45;1.17;;;1.30;99.90;;;;;;5101471;28;20052;-55
2021/12/03 03:02:06;;;;;;;4.47;1.27;;;1.30;99.90;;;;;;5101903;28;20549;-55
2021/12/03 03:04:32;;;;;;;6.30;1.58;;;1.30;99.90;;;;;;5101113;28;20064;-55
2021/12/03 03:06:59;;;;;;;5.78;1.40;;;1.30;99.90;;;;;;5101608;28;20040;-55
2021/12/03 03:09:25;;;;;;;8.15;1.48;;;1.40;99.90;;;;;;5101368;28;20036;-52
2021/12/03 03:11:51;;;;;;;6.65;1.90;;;1.40;99.90;;;;;;5101362;28;20052;-53
2021/12/03 03:14:17;;;;;;;9.05;1.77;;;1.30;99.90;;;;;;5101657;28;20051;-54
2021/12/03 03:16:44;;;;;;;5.93;1.40;;;1.20;99.90;;;;;;5101185;28;20426;-54
2021/12/03 03:19:21;;;;;;;4.40;1.35;;;1.30;99.90;;;;;;5101711;28;20132;-54
2021/12/03 03:21:47;;;;;;;8.98;2.00;;;1.30;99.90;;;;;;5100968;28;20450;-54
2021/12/03 03:24:14;;;;;;;7.07;1.77;;;1.30;99.90;;;;;;5099947;28;20059;-55
2021/12/03 03:26:43;;;;;;;7.22;2.40;;;1.30;99.90;;;;;;5101133;28;20044;-55
2021/12/03 03:29:11;;;;;;;7.30;2.05;;;1.30;99.90;;;;;;5100856;28;20731;-55
2021/12/03 03:31:38;;;;;;;6.75;2.00;;;1.40;99.90;;;;;;5101363;28;20340;-54
2021/12/03 03:34:06;;;;;;;6.00;2.22;;;1.40;99.90;;;;;;5100785;28;20040;-54
2021/12/03 03:36:34;;;;;;;7.22;2.40;;;1.40;99.90;;;;;;5101001;28;20052;-54
2021/12/03 03:39:01;;;;;;;8.60;2.20;;;1.40;99.90;;;;;;5100401;28;20063;-53
2021/12/03 03:41:27;;;;;;;9.55;2.20;;;1.30;99.90;;;;;;5101005;28;20103;-54
2021/12/03 03:43:53;;;;;;;8.13;2.20;;;1.40;99.90;;;;;;5100748;28;20044;-56
2021/12/03 03:46:19;;;;;;;7.05;2.25;;;1.40;99.90;;;;;;5100620;28;20075;-55
2021/12/03 03:48:45;;;;;;;7.85;3.00;;;1.40;99.90;;;;;;5100351;28;20098;-53
2021/12/03 03:51:11;;;;;;;9.65;2.75;;;1.40;99.90;;;;;;5096552;28;20044;-53
2021/12/03 03:53:38;;;;;;;7.35;2.70;;;1.30;99.90;;;;;;5080759;28;20044;-54
2021/12/03 03:56:05;;;;;;;8.55;2.85;;;1.40;99.90;;;;;;5080026;28;20052;-53
2021/12/03 03:58:31;;;;;;;6.82;2.53;;;1.40;99.90;;;;;;5080687;28;20040;-54
2021/12/03 04:00:57;;;;;;;9.82;3.30;;;1.50;99.90;;;;;;5080274;28;20047;-55
2021/12/03 04:03:23;;;;;;;10.93;3.60;;;1.50;99.90;;;;;;5080311;28;20045;-54
2021/12/03 04:05:49;;;;;;;11.25;3.90;;;1.50;99.90;;;;;;5080603;28;20033;-55
2021/12/03 04:08:15;;;;;;;14.02;6.00;;;1.50;99.90;;;;;;5079893;28;20040;-53
2021/12/03 04:10:40;;;;;;;15.18;7.65;;;1.50;99.90;;;;;;5079229;28;20067;-55
2021/12/03 04:13:07;;;;;;;14.90;7.72;;;1.60;99.90;;;;;;5079687;28;20090;-54
2021/12/03 04:15:32;;;;;;;17.10;9.50;;;1.50;99.90;;;;;;5079026;28;20458;-55
2021/12/03 04:17:58;;;;;;;17.95;10.25;;;1.60;99.90;;;;;;5080051;28;20059;-54
2021/12/03 04:20:24;;;;;;;22.70;12.63;;;1.60;99.90;;;;;;5080350;28;20100;-53
2021/12/03 04:22:51;;;;;;;23.88;12.95;;;1.60;99.90;;;;;;5079396;28;20075;-55
2021/12/03 04:25:19;;;;;;;22.00;13.25;;;1.50;99.90;;;;;;5079857;28;20062;-53
2021/12/03 04:27:47;;;;;;;26.92;15.27;;;1.60;99.90;;;;;;5080353;28;20033;-53
2021/12/03 04:30:19;;;;;;;26.13;17.15;;;1.60;99.90;;;;;;5079426;28;20048;-56
2021/12/03 04:32:45;;;;;;;27.35;17.02;;;1.60;99.90;;;;;;5080337;28;20036;-54
2021/12/03 04:35:11;;;;;;;28.15;17.02;;;1.60;99.90;;;;;;5079994;28;20059;-55
2021/12/03 04:37:38;;;;;;;29.83;18.10;;;1.60;99.90;;;;;;5080190;28;20040;-53
2021/12/03 04:40:07;;;;;;;30.60;18.15;;;1.50;99.90;;;;;;5078764;28;20064;-54
2021/12/03 04:42:33;;;;;;;30.38;18.42;;;1.60;99.90;;;;;;5079384;28;20519;-53
2021/12/03 04:44:58;;;;;;;33.55;20.60;;;1.50;99.90;;;;;;5080325;28;20063;-55
2021/12/03 04:47:24;;;;;;;33.13;20.50;;;1.50;99.90;;;;;;5079432;28;20044;-53
2021/12/03 04:49:50;;;;;;;30.52;19.13;;;1.50;99.90;;;;;;5078873;28;20044;-55
2021/12/03 04:52:16;;;;;;;28.63;18.98;;;1.50;99.90;;;;;;5092836;28;20397;-55
2021/12/03 04:54:42;;;;;;;33.28;20.40;;;1.60;99.90;;;;;;5100191;28;20043;-54
2021/12/03 04:57:08;;;;;;;28.25;18.33;;;1.50;99.90;;;;;;5098741;28;20119;-54
2021/12/03 04:59:34;;;;;;;31.85;18.45;;;1.60;99.90;;;;;;5100660;28;20121;-53
2021/12/03 05:02:00;;;;;;;30.17;19.42;;;1.60;99.90;;;;;;5104362;28;20044;-55
2021/12/03 05:04:26;;;;;;;27.73;18.73;;;1.50;99.90;;;;;;5103391;28;20035;-56
2021/12/03 05:09:38;;;;;;;28.92;19.33;;;1.60;99.90;;;;;;5071696;28;20040;-55
2021/12/03 05:12:05;;;;;;;31.98;19.50;;;1.50;99.90;;;;;;5102452;28;20115;-53
2021/12/03 05:14:31;;;;;;;33.03;17.70;;;1.50;99.90;;;;;;5103554;28;20040;-55
2021/12/03 05:16:57;;;;;;;30.45;19.15;;;1.60;99.90;;;;;;5103453;28;20135;-55
2021/12/03 05:19:23;;;;;;;30.70;19.08;;;1.50;99.90;;;;;;5103643;28;20052;-52
2021/12/03 05:21:49;;;;;;;27.02;18.35;;;1.50;99.90;;;;;;5103368;28;20401;-54
2021/12/03 05:24:16;;;;;;;29.30;18.95;;;1.60;99.90;;;;;;5103455;28;20206;-54
2021/12/03 05:26:44;;;;;;;28.70;19.02;;;1.60;99.90;;;;;;5085157;28;20140;-53
2021/12/03 05:29:11;;;;;;;29.75;18.60;;;1.60;99.90;;;;;;5103349;28;20044;-52
2021/12/03 05:31:37;;;;;;;33.10;19.25;;;1.60;99.90;;;;;;5103656;28;20569;-54
2021/12/03 05:34:05;;;;;;;29.00;17.75;;;1.60;99.90;;;;;;5103123;28;20123;-54
2021/12/03 05:36:31;;;;;;;29.77;18.67;;;1.60;99.90;;;;;;5103442;28;20445;-51
2021/12/03 05:38:57;;;;;;;29.60;18.63;;;1.50;99.90;;;;;;5102575;28;20063;-55
2021/12/03 05:41:23;;;;;;;27.52;17.83;;;1.50;99.90;;;;;;5103537;28;20138;-57
2021/12/03 05:43:49;;;;;;;27.50;16.63;;;1.60;99.90;;;;;;5103073;28;20540;-56
2021/12/03 05:46:15;;;;;;;25.50;17.58;;;1.60;99.90;;;;;;5103070;28;20044;-58
2021/12/03 05:48:40;;;;;;;30.08;17.77;;;1.50;99.90;;;;;;5103268;28;20040;-55
2021/12/03 05:51:06;;;;;;;24.65;17.33;;;1.50;99.90;;;;;;5097710;28;20052;-52
2021/12/03 05:53:33;;;;;;;29.38;18.05;;;1.50;99.90;;;;;;5082909;28;20083;-56
2021/12/03 05:55:59;;;;;;;28.50;17.70;;;1.50;99.90;;;;;;5082179;28;20080;-53
2021/12/03 05:58:25;;;;;;;27.67;18.13;;;1.50;99.90;;;;;;5082760;28;20056;-55
2021/12/03 06:00:51;;;;;;;29.42;17.23;;;1.40;99.90;;;;;;5082381;28;20044;-53
2021/12/03 06:03:17;;;;;;;29.55;18.58;;;1.40;99.90;;;;;;5082502;28;20052;-53
2021/12/03 06:05:43;;;;;;;26.98;18.27;;;1.50;99.90;;;;;;5082797;28;20462;-54
2021/12/03 06:08:09;;;;;;;24.58;18.52;;;1.40;99.90;;;;;;5082364;28;20045;-55
2021/12/03 06:10:35;;;;;;;26.73;17.30;;;1.40;99.90;;;;;;5082381;28;20048;-55
2021/12/03 06:13:02;;;;;;;26.55;17.20;;;1.50;99.90;;;;;;5081084;28;20050;-53
2021/12/03 06:15:28;;;;;;;25.88;17.75;;;1.50;99.90;;;;;;5082529;28;20037;-53
2021/12/03 06:17:55;;;;;;;25.20;16.98;;;1.40;99.90;;;;;;5082233;28;20055;-54
2021/12/03 06:20:20;;;;;;;26.73;16.35;;;1.50;99.90;;;;;;5080611;28;20484;-52
2021/12/03 06:22:47;;;;;;;25.25;16.38;;;1.50;99.90;;;;;;5082345;28;20061;-55
2021/12/03 06:25:14;;;;;;;31.08;18.15;;;1.60;99.90;;;;;;5081812;28;20040;-53
2021/12/03 06:27:40;;;;;;;26.73;18.92;;;1.60;99.90;;;;;;5082267;28;20104;-51
2021/12/03 06:30:12;;;;;;;28.02;17.60;;;1.60;99.90;;;;;;5081368;28;20481;-54
2021/12/03 06:32:40;;;;;;;32.55;19.42;;;1.80;99.90;;;;;;5082229;28;20044;-53
2021/12/03 06:35:09;;;;;;;27.80;19.27;;;1.70;99.90;;;;;;5081397;28;20052;-54
2021/12/03 06:37:35;;;;;;;28.73;19.73;;;1.80;99.90;;;;;;5082030;28;20072;-54
2021/12/03 06:40:03;;;;;;;31.85;20.58;;;1.90;99.90;;;;;;5082141;28;20064;-53
2021/12/03 06:42:31;;;;;;;32.67;21.23;;;1.90;99.90;;;;;;5080146;28;20053;-54
2021/12/03 06:44:57;;;;;;;31.40;21.08;;;1.90;99.90;;;;;;5081939;28;20045;-54
2021/12/03 06:47:22;;;;;;;33.17;21.95;;;1.90;99.90;;;;;;5081124;28;20105;-51
2021/12/03 06:49:48;;;;;;;30.00;21.38;;;1.90;99.90;;;;;;5081739;28;20668;-53
2021/12/03 06:52:16;;;;;;;34.88;21.23;;;1.80;99.90;;;;;;5094158;28;20032;-54
2021/12/03 06:54:43;;;;;;;32.65;21.10;;;1.80;99.90;;;;;;5100311;28;20052;-53
2021/12/03 06:57:10;;;;;;;29.52;20.27;;;1.80;99.90;;;;;;5102053;28;20062;-53
2021/12/03 06:59:37;;;;;;;29.67;19.98;;;1.90;99.90;;;;;;5101503;28;20048;-52
2021/12/03 07:02:03;;;;;;;31.15;20.75;;;1.90;99.90;;;;;;5101800;28;20055;-53
2021/12/03 07:04:29;;;;;;;28.65;18.08;;;1.90;99.90;;;;;;5101067;28;20067;-51
2021/12/03 07:06:55;;;;;;;32.15;20.25;;;1.90;99.90;;;;;;5101542;28;20051;-53
2021/12/03 07:09:20;;;;;;;31.52;19.45;;;1.90;99.90;;;;;;5101433;28;20040;-54
2021/12/03 07:11:46;;;;;;;31.60;21.05;;;1.90;99.90;;;;;;5101216;28;20044;-53
2021/12/03 07:14:12;;;;;;;30.65;18.25;;;2.00;99.90;;;;;;5101547;28;20050;-53
2021/12/03 07:16:37;;;;;;;32.17;19.52;;;1.90;99.90;;;;;;5101093;28;20062;-52
2021/12/03 07:19:05;;;;;;;33.78;19.08;;;1.90;99.90;;;;;;5101615;28;20047;-55
2021/12/03 07:21:30;;;;;;;28.67;18.63;;;2.00;99.90;;;;;;5100850;28;20040;-53
2021/12/03 07:23:56;;;;;;;29.17;17.08;;;2.00;99.90;;;;;;5101367;28;20044;-54
2021/12/03 07:26:23;;;;;;;24.10;15.20;;;2.10;99.90;;;;;;5100845;28;20040;-53
2021/12/03 07:28:50;;;;;;;26.70;15.68;;;2.10;99.90;;;;;;5101300;28;20043;-53
2021/12/03 07:31:16;;;;;;;25.05;14.70;;;2.10;99.90;;;;;;5099833;28;20055;-52
2021/12/03 07:33:42;;;;;;;24.02;13.02;;;2.20;99.90;;;;;;5101017;28;20044;-54
2021/12/03 07:36:08;;;;;;;20.50;12.75;;;2.20;99.90;;;;;;5101357;28;20707;-52
2021/12/03 07:38:35;;;;;;;19.15;11.38;;;2.20;99.90;;;;;;5100324;28;20051;-53
2021/12/03 07:41:01;;;;;;;17.60;11.15;;;2.30;99.90;;;;;;5101306;28;20100;-54
2021/12/03 07:43:28;;;;;;;16.20;10.13;;;2.20;99.90;;;;;;5100454;28;20048;-52
2021/12/03 07:45:53;;;;;;;20.90;10.15;;;2.30;99.90;;;;;;5100689;28;20971;-54
2021/12/03 07:48:21;;;;;;;18.55;9.63;;;2.30;99.90;;;;;;5101182;28;20055;-55
2021/12/03 07:50:48;;;;;;;19.10;9.40;;;2.40;99.90;;;;;;5099930;28;20048;-54
2021/12/03 07:53:19;;;;;;;17.50;8.68;;;2.50;99.90;;;;;;5080807;28;20036;-55
2021/12/03 07:55:49;;;;;;;16.15;7.82;;;2.40;99.90;;;;;;5078900;28;20056;-52
2021/12/03 07:58:16;;;;;;;16.65;8.48;;;2.50;99.90;;;;;;5080629;28;20040;-54
2021/12/03 08:00:43;;;;;;;15.82;8.43;;;2.50;99.90;;;;;;5080273;28;20070;-52
2021/12/03 08:03:08;;;;;;;15.35;7.20;;;2.50;99.90;;;;;;5080371;28;20041;-51
2021/12/03 08:05:35;;;;;;;15.25;7.75;;;2.50;99.90;;;;;;5080523;28;20052;-50
2021/12/03 08:08:00;;;;;;;12.25;6.28;;;2.50;99.90;;;;;;5079938;28;20040;-53
2021/12/03 08:10:26;;;;;;;18.08;7.25;;;2.60;99.90;;;;;;5080664;28;20049;-58
2021/12/03 08:12:52;;;;;;;18.05;6.88;;;2.50;99.90;;;;;;5079307;28;20060;-52
2021/12/03 08:15:18;;;;;;;16.25;7.00;;;2.60;99.90;;;;;;5080688;28;20551;-53
2021/12/03 08:17:48;;;;;;;12.75;6.78;;;2.50;99.90;;;;;;5079842;28;20046;-54
2021/12/03 08:20:15;;;;;;;15.55;6.97;;;2.60;99.90;;;;;;5080343;28;20304;-53
2021/12/03 08:22:41;;;;;;;15.38;6.85;;;2.70;99.90;;;;;;5080549;28;20036;-52
2021/12/03 08:25:08;;;;;;;16.38;6.50;;;2.60;99.90;;;;;;5080229;28;20045;-53
2021/12/03 08:27:34;;;;;;;12.90;6.15;;;2.60;99.90;;;;;;5080335;28;20382;-52
2021/12/03 08:30:00;;;;;;;12.82;6.18;;;2.60;99.90;;;;;;5079716;28;20043;-52
2021/12/03 08:32:25;;;;;;;11.15;5.70;;;2.70;99.90;;;;;;5080365;28;20052;-53
2021/12/03 08:34:52;;;;;;;11.95;6.13;;;2.70;99.90;;;;;;5081262;28;20064;-52
2021/12/03 08:37:18;;;;;;;14.30;6.43;;;2.80;99.90;;;;;;5084054;28;20079;-53
2021/12/03 08:39:43;;;;;;;12.80;5.82;;;2.80;99.90;;;;;;5084277;28;20056;-53
2021/12/03 08:42:11;;;;;;;13.30;5.88;;;2.80;99.90;;;;;;5083743;28;20049;-52
2021/12/03 08:44:37;;;;;;;14.93;5.95;;;2.80;99.90;;;;;;5084194;28;20048;-52
2021/12/03 08:47:04;;;;;;;13.60;5.63;;;2.80;99.90;;;;;;5083655;28;20094;-52
2021/12/03 08:49:55;;;;;;;10.68;5.60;;;2.80;99.90;;;;;;5084144;28;20083;-51
2021/12/03 08:55:04;;;;;;;14.18;5.55;;;2.90;99.90;;;;;;5103897;28;20044;-52
2021/12/03 08:57:32;;;;;;;13.95;5.80;;;2.90;99.90;;;;;;5104433;28;20078;-52
2021/12/03 09:00:01;;;;;;;15.50;5.43;;;2.90;99.90;;;;;;5103647;28;20443;-54
2021/12/03 09:02:27;;;;;;;10.68;5.50;;;3.00;99.90;;;;;;5104250;28;20048;-54
2021/12/03 09:04:53;;;;;;;11.65;6.45;;;3.00;99.90;;;;;;5103805;28;20042;-51
2021/12/03 09:07:19;;;;;;;18.27;6.00;;;3.00;99.90;;;;;;5103766;28;20573;-51
2021/12/03 09:09:45;;;;;;;11.45;6.25;;;3.00;99.90;;;;;;5104079;28;20036;-53
2021/12/03 09:12:11;;;;;;;12.50;6.00;;;3.00;99.90;;;;;;5103704;28;20067;-54
2021/12/03 09:19:44;;;;;;;14.90;7.05;;;3.10;99.90;;;;;;5102559;28;20048;-50
2021/12/03 09:22:15;;;;;;;19.70;7.90;;;3.10;99.90;;;;;;5103464;28;20074;-51
2021/12/03 09:24:40;;;;;;;19.13;7.82;;;3.10;99.90;;;;;;5102155;28;20043;-49
2021/12/03 09:27:06;;;;;;;19.35;8.30;;;3.10;99.90;;;;;;5102474;28;20047;-50
2021/12/03 09:29:34;;;;;;;19.42;9.13;;;3.20;99.90;;;;;;5103226;28;20043;-51
2021/12/03 09:32:00;;;;;;;20.55;9.00;;;3.20;99.90;;;;;;5103648;28;20052;-50
2021/12/03 09:34:30;;;;;;;22.42;9.15;;;3.30;99.90;;;;;;5102776;28;20040;-53
2021/12/03 09:36:56;;;;;;;18.20;8.30;;;3.30;99.90;;;;;;5103476;28;20066;-53
2021/12/03 09:39:23;;;;;;;16.60;8.55;;;3.20;99.90;;;;;;5102821;28;20052;-53
2021/12/03 09:41:54;;;;;;;17.83;9.27;;;3.30;99.90;;;;;;5103250;28;20496;-52
2021/12/03 09:44:21;;;;;;;20.20;10.68;;;3.30;99.90;;;;;;5103143;28;20072;-53
2021/12/03 09:46:49;;;;;;;19.17;8.63;;;3.30;99.90;;;;;;5101418;28;20040;-53
2021/12/03 09:52:08;;;;;;;22.70;9.88;;;3.40;99.90;;;;;;5094115;28;20060;-49
2021/12/03 09:54:42;;;;;;;21.15;10.02;;;3.40;99.90;;;;;;5082587;28;20041;-52
2021/12/03 09:57:12;;;;;;;22.00;11.45;;;3.40;99.90;;;;;;5081640;28;20052;-51
2021/12/03 10:11:23;;;;;;;20.65;10.07;;;3.50;99.90;;;;;;5082524;28;20052;-53
2021/12/03 10:14:17;;;;;;;20.88;10.52;;;3.60;99.90;;;;;;5081804;28;20056;-53
2021/12/03 10:18:56;;;;;;;18.52;8.55;;;3.70;99.90;;;;;;5082175;28;20076;-54
2021/12/03 10:46:05;;;;;;;19.70;6.70;;;3.80;99.90;;;;;;5081356;28;20057;-55
2021/12/03 10:48:45;;;;;;;14.90;6.03;;;3.80;99.90;;;;;;5081607;28;20040;-54
2021/12/03 10:51:33;;;;;;;15.10;6.78;;;3.80;99.90;;;;;;5084778;28;20044;-52
2021/12/03 10:54:30;;;;;;;34.70;8.13;;;3.80;99.90;;;;;;5102126;28;20051;-52
2021/12/03 12:02:22;;;;;;;14.82;6.25;;;3.40;99.90;;;;;;5060557;28;20057;-53
2021/12/03 12:25:05;;;;;;;15.48;5.93;;;3.30;99.90;;;;;;5060026;28;20055;-54
2021/12/03 12:55:53;;;;;;;16.75;6.13;;;3.40;99.90;;;;;;5059331;28;20049;-55
2021/12/03 14:00:16;;;;;;;14.48;7.30;;;3.80;99.90;;;;;;5081207;28;20940;-51
2021/12/03 14:49:46;;;;;;;15.98;6.82;;;3.90;99.90;;;;;;5080854;28;20074;-54
2021/12/03 14:52:24;;;;;;;12.07;5.97;;;4.00;99.90;;;;;;5093259;28;20683;-55
2021/12/03 14:54:55;;;;;;;14.32;5.95;;;3.90;99.90;;;;;;5098781;28;20058;-54
2021/12/03 15:00:04;;;;;;;15.13;5.75;;;3.90;99.90;;;;;;5100058;28;20056;-54
2021/12/03 15:02:47;;;;;;;13.70;6.70;;;4.30;99.90;;;;;;5100954;28;20048;-53
2021/12/03 15:05:29;;;;;;;12.23;6.10;;;3.90;99.90;;;;;;5101065;28;20089;-50
2021/12/03 15:07:54;;;;;;;13.70;6.47;;;3.90;99.90;;;;;;5100058;28;20101;-55
2021/12/03 15:10:34;;;;;;;14.30;7.35;;;3.90;99.90;;;;;;5100960;28;20040;-53
2021/12/03 15:13:27;;;;;;;14.52;7.43;;;3.80;99.90;;;;;;5099695;28;20043;-54
2021/12/03 15:24:12;;;;;;;14.13;8.27;;;3.80;99.90;;;;;;5100589;28;20455;-52
2021/12/03 15:32:00;;;;;;;17.00;9.20;;;3.90;99.90;;;;;;5100672;28;20056;-55
2021/12/03 15:37:16;;;;;;;17.75;9.55;;;3.80;99.90;;;;;;5099546;28;20420;-54
2021/12/03 16:14:58;;;;;;;20.83;12.52;;;4.10;99.90;;;;;;5058888;28;20524;-54
2021/12/03 16:23:00;;;;;;;;;;;4.10;99.90;;;;;;5059994;28;20056;-55
2021/12/03 16:47:28;;;;;;;19.52;13.57;;;4.10;99.90;;;;;;5058115;28;20049;-53
2021/12/03 16:52:42;;;;;;;20.23;12.85;;;4.20;99.90;;;;;;5091845;28;20048;-53
2021/12/03 16:55:09;;;;;;;20.77;14.00;;;4.10;99.90;;;;;;5098186;28;20100;-51
2021/12/03 16:57:36;;;;;;;30.85;14.18;;;4.10;99.90;;;;;;5103016;28;20080;-53
2021/12/03 17:00:35;;;;;;;21.45;14.35;;;4.10;99.90;;;;;;5101593;28;20047;-53
2021/12/03 17:03:09;;;;;;;21.65;13.98;;;4.00;99.90;;;;;;5101953;28;20048;-54
2021/12/03 17:11:08;;;;;;;20.77;14.52;;;4.00;99.90;;;;;;5102151;28;20145;-53
2021/12/03 17:27:36;;;;;;;22.25;15.27;;;4.10;99.90;;;;;;5102335;28;20055;-50
2021/12/03 17:48:22;;;;;;;23.63;14.48;;;4.10;99.90;;;;;;5102598;28;20077;-53
2021/12/03 17:51:06;;;;;;;19.20;12.65;;;4.40;99.90;;;;;;5100160;28;20044;-54
2021/12/03 17:58:49;;;;;;;21.67;13.68;;;4.20;99.90;;;;;;5081325;28;20054;-53
2021/12/03 18:01:20;;;;;;;23.65;14.93;;;4.20;99.90;;;;;;5081953;28;20044;-52
2021/12/03 18:04:01;;;;;;;25.33;15.55;;;4.30;99.90;;;;;;5080864;28;20071;-55
2021/12/03 18:55:15;;;;;;;30.58;17.52;;;4.30;99.90;;;;;;5017249;28;20050;-52
2021/12/03 18:57:45;;;;;;;29.90;16.65;;;4.40;99.90;;;;;;5050077;28;20060;-53
2021/12/03 19:00:16;;;;;;;30.75;17.02;;;4.40;99.90;;;;;;5079949;28;20072;-53
2021/12/03 19:02:45;;;;;;;28.90;17.10;;;4.40;99.90;;;;;;5080257;28;20048;-51
2021/12/03 19:05:31;;;;;;;30.27;17.75;;;4.40;99.90;;;;;;5080514;28;20516;-53
2021/12/03 19:10:30;;;;;;;32.63;18.20;;;4.40;99.90;;;;;;5080571;28;20468;-52
2021/12/03 19:13:00;;;;;;;32.22;18.50;;;4.40;99.90;;;;;;5079416;28;20045;-53
2021/12/03 19:15:26;;;;;;;36.00;19.33;;;4.40;99.90;;;;;;5079802;28;20059;-54
2021/12/03 19:17:52;;;;;;;33.45;18.95;;;4.40;99.90;;;;;;5080392;28;20062;-53
2021/12/03 19:20:22;;;;;;;35.00;19.40;;;4.40;99.90;;;;;;5079380;28;20099;-53
2021/12/03 19:22:50;;;;;;;35.13;19.65;;;4.40;99.90;;;;;;5080531;28;20074;-54
2021/12/03 19:25:17;;;;;;;37.05;19.88;;;4.50;99.90;;;;;;5079082;28;20082;-52
2021/12/03 19:27:43;;;;;;;34.05;21.00;;;4.40;99.90;;;;;;5080182;28;20437;-53
2021/12/03 19:30:09;;;;;;;35.28;20.52;;;4.40;99.90;;;;;;5079105;28;20036;-53
2021/12/03 19:32:36;;;;;;;36.25;20.55;;;4.40;99.90;;;;;;5079574;28;20079;-52
2021/12/03 19:35:03;;;;;;;35.50;19.83;;;4.50;99.90;;;;;;5079003;28;20127;-52
2021/12/03 19:37:29;;;;;;;36.83;20.35;;;4.50;99.90;;;;;;5077939;28;20125;-53
2021/12/03 19:40:00;;;;;;;38.58;22.83;;;4.50;99.90;;;;;;5078576;28;20072;-51
2021/12/03 19:43:04;;;;;;;37.70;22.92;;;4.50;99.90;;;;;;5078469;28;20049;-53
2021/12/03 19:45:21;;;;;;;38.20;21.17;;;4.50;99.90;;;;;;5077462;28;20467;-51
2021/12/03 19:53:12;;;;;;;42.50;22.58;;;4.50;99.90;;;;;;5097578;28;20058;-51
2021/12/03 19:55:37;;;;;;;41.55;23.42;;;4.60;99.90;;;;;;5098784;28;20052;-51
2021/12/03 19:58:04;;;;;;;46.10;25.15;;;4.60;99.90;;;;;;5099955;28;20574;-51
2021/12/03 20:00:29;;;;;;;44.47;24.52;;;4.50;99.90;;;;;;5099675;28;20068;-54
2021/12/03 20:02:55;;;;;;;42.33;24.83;;;4.60;99.90;;;;;;5099259;28;20043;-53
2021/12/03 20:05:21;;;;;;;43.70;24.02;;;4.50;99.90;;;;;;5099986;28;20384;-53
2021/12/03 20:07:47;;;;;;;50.42;26.33;;;4.50;99.90;;;;;;5098867;28;20044;-53
2021/12/03 20:10:18;;;;;;;52.15;26.38;;;4.50;99.90;;;;;;5100118;28;20047;-53
2021/12/03 20:12:46;;;;;;;46.13;25.05;;;4.50;99.90;;;;;;5098600;28;20130;-50
2021/12/03 20:15:18;;;;;;;48.38;25.77;;;4.60;99.90;;;;;;5099569;28;20530;-53
2021/12/03 20:17:57;;;;;;;52.80;28.58;;;4.50;99.90;;;;;;5099686;28;20105;-52
2021/12/03 20:20:25;;;;;;;50.92;26.63;;;4.70;99.90;;;;;;5098820;28;20080;-50
2021/12/03 20:22:57;;;;;;;53.55;27.25;;;4.50;99.90;;;;;;5099909;28;20071;-54
2021/12/03 20:28:11;;;;;;;56.05;30.10;;;4.50;99.90;;;;;;5099517;28;20052;-51
2021/12/03 20:33:22;;;;;;;63.33;32.28;;;4.50;99.90;;;;;;5103043;28;20484;-49